Time;durP1;ratioP1;P1;durP2;ratioP2;P2;SDS_P1;SDS_P2;PMS_P1;PMS_P2;Temp;Humidity;BMP_temperature;BMP_pressure;BME280_temperature;BME280_humidity;BME280_pressure;Samples;Min_cycle;Max_cycle;Signal;HPM_P1;HPM_P2
2024/01/21 00:03:59;;;;;;;12.55;8.20;;;;;;;-4.39;100.00;102129.72;10518385;28;20047;-80
2024/01/21 00:09:00;;;;;;;9.63;6.63;;;;;;;-4.43;100.00;102129.31;10494206;28;20040;-80
2024/01/21 00:14:00;;;;;;;9.77;5.23;;;;;;;-4.56;100.00;102120.81;10500212;28;20059;-80
2024/01/21 00:19:01;;;;;;;7.43;5.40;;;;;;;-4.74;100.00;102107.50;10520201;28;20119;-80
2024/01/21 00:24:01;;;;;;;10.30;5.27;;;;;;;-4.92;100.00;102079.59;10525056;28;20035;-81
2024/01/21 00:29:02;;;;;;;10.30;5.93;;;;;;;-4.88;100.00;102072.53;10511714;28;20036;-81
2024/01/21 00:34:03;;;;;;;9.37;5.70;;;;;;;-4.87;100.00;102061.63;10549773;28;20060;-81
2024/01/21 00:39:03;;;;;;;15.00;5.57;;;;;;;-4.96;100.00;102049.28;10517203;28;20046;-79
2024/01/21 00:44:04;;;;;;;7.23;5.57;;;;;;;-5.13;100.00;102034.34;10534795;28;20394;-81
2024/01/21 00:49:04;;;;;;;12.60;6.37;;;;;;;-5.32;100.00;102037.09;10504956;28;20123;-78
2024/01/21 00:54:05;;;;;;;7.60;4.47;;;;;;;-5.45;100.00;102034.56;10536133;28;20039;-81
2024/01/21 00:59:05;;;;;;;8.03;4.70;;;;;;;-5.53;100.00;102033.56;10537746;28;20032;-80
2024/01/21 01:04:06;;;;;;;8.90;4.30;;;;;;;-5.55;100.00;102023.88;10526070;28;20038;-80
2024/01/21 01:09:06;;;;;;;6.33;3.10;;;;;;;-5.55;100.00;102008.56;10548321;28;20042;-80
2024/01/21 01:14:07;;;;;;;7.40;4.07;;;;;;;-5.59;100.00;102004.72;10533358;28;20480;-80
2024/01/21 01:19:07;;;;;;;9.27;6.10;;;;;;;-5.69;100.00;102007.69;10523206;28;20129;-80
2024/01/21 01:24:08;;;;;;;8.03;3.57;;;;;;;-5.71;100.00;101996.38;10550762;28;20044;-80
2024/01/21 01:29:09;;;;;;;9.27;4.90;;;;;;;-5.62;100.00;101989.91;10532484;28;20368;-80
2024/01/21 01:34:11;;;;;;;10.05;5.47;;;;;;;-5.58;100.00;101986.13;10528311;28;20040;-80
2024/01/21 01:39:11;;;;;;;;;;;;;;;-5.46;100.00;101958.72;10534720;28;20036;-81
2024/01/21 01:44:12;;;;;;;10.67;4.70;;;;;;;-5.39;100.00;101953.69;10546803;27;20335;-81
2024/01/21 01:49:14;;;;;;;;;;;;;;;-5.39;100.00;101942.59;10584199;27;20063;-81
2024/01/21 01:54:17;;;;;;;8.90;5.28;;;;;;;-5.35;100.00;101925.28;10556146;27;20367;-81
2024/01/21 01:59:18;;;;;;;9.23;5.20;;;;;;;-5.26;100.00;101925.56;10536033;28;20071;-81
2024/01/21 02:04:18;;;;;;;13.63;6.60;;;;;;;-5.10;100.00;101932.63;10561125;27;20055;-80
2024/01/21 02:09:19;;;;;;;12.93;5.33;;;;;;;-4.91;100.00;101923.09;10579577;27;20454;-80
2024/01/21 02:14:20;;;;;;;9.10;4.37;;;;;;;-4.82;100.00;101911.47;10553811;28;20053;-81
2024/01/21 02:19:26;;;;;;;5.17;3.67;;;;;;;-4.78;100.00;101912.81;10561699;27;20612;-81
2024/01/21 02:24:33;;;;;;;7.55;4.55;;;;;;;-4.83;100.00;101917.31;10568317;27;20043;-81
2024/01/21 02:29:33;;;;;;;9.10;5.28;;;;;;;-4.92;100.00;101918.72;10532144;27;20035;-81
2024/01/21 02:34:35;;;;;;;7.47;4.50;;;;;;;-5.12;100.00;101908.53;10556630;27;20062;-81
2024/01/21 02:39:35;;;;;;;6.78;3.83;;;;;;;-5.28;100.00;101906.59;10572079;27;20513;-81
2024/01/21 02:44:36;;;;;;;6.17;3.60;;;;;;;-5.42;100.00;101892.06;10549457;27;20110;-80
2024/01/21 02:49:36;;;;;;;9.07;4.87;;;;;;;-5.29;100.00;101874.13;10561124;27;20511;-80
2024/01/21 02:54:37;;;;;;;9.17;5.20;;;;;;;-5.19;100.00;101877.13;10555936;27;20032;-81
2024/01/21 02:59:37;;;;;;;8.47;4.37;;;;;;;-5.17;100.00;101870.59;10587287;27;20518;-81
2024/01/21 03:04:38;;;;;;;11.17;4.93;;;;;;;-5.13;100.00;101860.75;10570481;27;20122;-80
2024/01/21 03:09:39;;;;;;;8.23;3.67;;;;;;;-4.94;100.00;101854.69;10572484;27;20507;-79
2024/01/21 03:14:39;;;;;;;6.97;3.47;;;;;;;-4.85;100.00;101849.81;10553307;27;20130;-81
2024/01/21 03:19:40;;;;;;;5.80;3.00;;;;;;;-4.80;100.00;101843.63;10551801;27;20146;-81
2024/01/21 03:24:40;;;;;;;5.90;4.00;;;;;;;-4.85;100.00;101847.25;10566133;27;20054;-79
2024/01/21 03:29:41;;;;;;;5.80;4.00;;;;;;;-4.88;100.00;101829.91;10569381;27;20119;-81
2024/01/21 03:34:42;;;;;;;8.77;4.97;;;;;;;-4.91;100.00;101813.28;10544577;28;20027;-80
2024/01/21 03:39:43;;;;;;;6.05;4.13;;;;;;;-4.85;100.00;101810.59;10555132;27;20395;-80
2024/01/21 03:44:43;;;;;;;6.23;3.63;;;;;;;-4.73;100.00;101795.13;10538336;28;20042;-80
2024/01/21 03:49:44;;;;;;;6.23;3.67;;;;;;;-4.64;100.00;101779.09;10524908;28;20062;-80
2024/01/21 03:54:45;;;;;;;4.33;2.80;;;;;;;-4.48;100.00;101787.91;10503806;28;20043;-80
2024/01/21 03:59:45;;;;;;;9.40;4.30;;;;;;;-4.41;100.00;101787.03;10536101;28;20444;-80
2024/01/21 04:04:46;;;;;;;4.90;3.03;;;;;;;-4.38;100.00;101783.94;10523155;28;20067;-80
2024/01/21 04:09:46;;;;;;;6.97;3.90;;;;;;;-4.39;100.00;101788.16;10548226;28;20048;-80
2024/01/21 04:14:47;;;;;;;9.33;4.27;;;;;;;-4.34;100.00;101775.91;10549568;28;20044;-81
2024/01/21 04:19:47;;;;;;;9.00;4.00;;;;;;;-4.38;100.00;101784.88;10537017;28;20129;-81
2024/01/21 04:24:48;;;;;;;6.07;3.33;;;;;;;-4.43;100.00;101771.50;10549133;28;20181;-81
2024/01/21 04:29:49;;;;;;;5.67;3.47;;;;;;;-4.42;100.00;101760.56;10553332;28;20078;-81
2024/01/21 04:34:49;;;;;;;4.33;2.63;;;;;;;-4.43;100.00;101784.28;10533293;28;20843;-81
2024/01/21 04:39:50;;;;;;;4.97;3.60;;;;;;;-4.46;100.00;101760.00;10523117;28;20122;-80
2024/01/21 04:44:50;;;;;;;6.80;2.70;;;;;;;-4.48;100.00;101741.91;10541048;28;20601;-80
2024/01/21 04:49:51;;;;;;;6.87;3.73;;;;;;;-4.47;100.00;101741.19;10509627;28;20131;-80
2024/01/21 04:54:51;;;;;;;3.70;2.40;;;;;;;-4.39;100.00;101733.53;10549436;28;20529;-80
2024/01/21 04:59:52;;;;;;;5.47;3.90;;;;;;;-4.39;100.00;101729.38;10542953;27;20452;-80
2024/01/21 05:04:52;;;;;;;4.57;2.83;;;;;;;-4.47;100.00;101728.41;10565447;27;20123;-80
2024/01/21 05:09:53;;;;;;;10.23;3.73;;;;;;;-4.51;100.00;101726.22;10543024;27;20092;-80
2024/01/21 05:14:55;;;;;;;4.83;3.90;;;;;;;-4.45;100.00;101700.50;10566599;27;20447;-80
2024/01/21 05:19:56;;;;;;;6.30;3.83;;;;;;;-4.23;100.00;101680.09;10527528;27;20043;-81
2024/01/21 05:24:56;;;;;;;5.77;2.87;;;;;;;-3.89;100.00;101667.09;10566161;27;20123;-81
2024/01/21 05:29:57;;;;;;;7.57;3.50;;;;;;;-3.32;100.00;101669.34;10542680;27;20071;-79
2024/01/21 05:34:57;;;;;;;8.03;3.80;;;;;;;-3.09;100.00;101689.91;10576718;27;20074;-82
2024/01/21 05:39:58;;;;;;;5.70;3.53;;;;;;;-2.89;100.00;101692.22;10584823;27;20067;-81
2024/01/21 05:44:58;;;;;;;9.70;5.00;;;;;;;-2.55;100.00;101692.59;10576661;27;20486;-81
2024/01/21 05:49:59;;;;;;;9.53;6.47;;;;;;;-2.15;100.00;101683.34;10543707;27;20043;-81
2024/01/21 05:54:59;;;;;;;8.77;4.70;;;;;;;-1.75;100.00;101709.94;10520141;27;20042;-82
2024/01/21 06:00:00;;;;;;;9.50;5.00;;;;;;;-1.33;100.00;101688.06;10570930;27;20468;-81
2024/01/21 06:05:01;;;;;;;10.37;4.50;;;;;;;-0.87;100.00;101678.34;10570519;27;20118;-81
2024/01/21 06:10:01;;;;;;;7.80;4.83;;;;;;;-0.65;100.00;101693.47;10552315;27;20483;-81
2024/01/21 06:15:02;;;;;;;7.43;4.03;;;;;;;-0.46;100.00;101707.53;10551535;27;20035;-82
2024/01/21 06:20:03;;;;;;;9.00;5.03;;;;;;;-0.43;100.00;101730.06;10553973;27;20040;-82
2024/01/21 06:25:04;;;;;;;11.18;6.05;;;;;;;-0.29;100.00;101754.69;10562107;27;20084;-81
2024/01/21 06:30:14;;;;;;;8.30;5.63;;;;;;;-0.25;100.00;101753.34;10551638;27;20127;-80
2024/01/21 06:35:15;;;;;;;6.70;4.35;;;;;;;-0.23;100.00;101760.47;10566464;27;20040;-80
2024/01/21 06:40:16;;;;;;;11.37;6.40;;;;;;;-0.18;100.00;101784.09;10550273;27;20040;-82
2024/01/21 06:45:16;;;;;;;7.37;4.90;;;;;;;-0.10;100.00;101772.06;10562587;27;20211;-82
2024/01/21 06:50:17;;;;;;;11.13;5.53;;;;;;;-0.07;100.00;101767.25;10541951;27;20039;-81
2024/01/21 06:55:17;;;;;;;11.07;6.10;;;;;;;-0.12;100.00;101764.16;10572383;27;20070;-80
2024/01/21 07:00:18;;;;;;;12.37;5.17;;;;;;;-0.15;100.00;101776.72;10548666;27;20067;-81
2024/01/21 07:05:19;;;;;;;7.47;5.37;;;;;;;-0.11;100.00;101793.41;10564275;27;20062;-80
2024/01/21 07:10:20;;;;;;;9.90;4.23;;;;;;;-0.08;100.00;101799.75;10565996;27;20059;-83
2024/01/21 07:15:21;;;;;;;7.93;5.03;;;;;;;-0.13;100.00;101808.66;10534076;27;20043;-83
2024/01/21 07:20:22;;;;;;;7.73;5.10;;;;;;;-0.05;100.00;101814.63;10569609;27;20039;-80
2024/01/21 07:25:22;;;;;;;8.87;5.30;;;;;;;-0.05;100.00;101804.34;10557293;27;20070;-81
2024/01/21 07:30:23;;;;;;;7.03;5.30;;;;;;;0.12;100.00;101803.53;10531396;28;20122;-81
2024/01/21 07:35:23;;;;;;;7.53;4.75;;;;;;;0.17;100.00;101783.41;10565513;27;20063;-81
2024/01/21 07:40:24;;;;;;;6.53;3.37;;;;;;;0.13;100.00;101748.72;10567085;27;20044;-80
2024/01/21 07:45:24;;;;;;;9.30;4.70;;;;;;;0.18;100.00;101737.22;10565032;27;20564;-80
2024/01/21 07:50:25;;;;;;;12.03;5.57;;;;;;;0.11;100.00;101755.34;10568916;27;20047;-80
2024/01/21 07:55:25;;;;;;;10.70;5.55;;;;;;;0.17;100.00;101749.94;10550261;27;20135;-81
2024/01/21 08:00:26;;;;;;;7.53;4.87;;;;;;;0.23;100.00;101718.00;10556819;27;20542;-81
2024/01/21 08:05:26;;;;;;;9.13;4.67;;;;;;;0.32;100.00;101753.19;10563859;28;20122;-81
2024/01/21 08:10:27;;;;;;;11.60;5.00;;;;;;;0.34;100.00;101780.94;10571424;27;20036;-81
2024/01/21 08:15:27;;;;;;;8.70;6.73;;;;;;;0.43;100.00;101817.94;10548949;27;20134;-80
2024/01/21 08:20:28;;;;;;;13.00;4.97;;;;;;;0.33;100.00;101828.03;10528251;28;20131;-82
2024/01/21 08:25:28;;;;;;;6.82;4.28;;;;;;;0.22;100.00;101824.31;10563522;28;20134;-84
2024/01/21 08:30:29;;;;;;;8.67;4.63;;;;;;;0.25;100.00;101828.91;10536787;27;20066;-85
2024/01/21 08:35:30;;;;;;;5.83;3.83;;;;;;;0.54;100.00;101834.50;10550761;27;20044;-81
2024/01/21 08:40:31;;;;;;;8.17;5.07;;;;;;;1.02;100.00;101851.34;10564676;27;20043;-82
2024/01/21 08:45:32;;;;;;;9.23;4.83;;;;;;;1.54;100.00;101849.63;10557547;27;20050;-82
2024/01/21 08:50:32;;;;;;;6.45;4.50;;;;;;;1.86;100.00;101873.47;10575467;27;20047;-85
2024/01/21 08:55:33;;;;;;;7.15;4.00;;;;;;;1.78;100.00;101876.03;10561831;28;20045;-85
2024/01/21 09:00:33;;;;;;;8.55;5.22;;;;;;;1.60;100.00;101868.28;10557549;28;20514;-82
2024/01/21 09:05:34;;;;;;;8.52;5.78;;;;;;;1.43;100.00;101872.69;10516028;28;20048;-83
2024/01/21 09:10:34;;;;;;;9.07;4.97;;;;;;;1.45;100.00;101881.47;10540303;28;20153;-83
2024/01/21 09:15:35;;;;;;;8.82;4.10;;;;;;;1.63;100.00;101873.75;10544087;28;20044;-79
2024/01/21 09:20:39;;;;;;;9.88;4.97;;;;;;;1.69;100.00;101882.13;10542248;28;20043;-79
2024/01/21 09:25:40;;;;;;;7.90;4.32;;;;;;;1.75;100.00;101869.81;10527896;28;20046;-82
2024/01/21 09:30:41;;;;;;;9.77;5.47;;;;;;;1.80;100.00;101864.19;10573489;28;20534;-81
2024/01/21 09:35:41;;;;;;;8.70;4.15;;;;;;;1.83;100.00;101865.44;10561708;28;20031;-80
2024/01/21 09:40:42;;;;;;;9.18;5.03;;;;;;;1.73;100.00;101867.84;10551542;28;20114;-80
2024/01/21 09:45:42;;;;;;;9.00;5.15;;;;;;;1.79;100.00;101865.88;10542221;27;20080;-81
2024/01/21 09:50:43;;;;;;;12.73;5.03;;;;;;;1.96;100.00;101852.03;10533616;27;20470;-81
2024/01/21 09:55:44;;;;;;;7.40;4.57;;;;;;;2.13;100.00;101857.94;10522200;27;20035;-81
2024/01/21 10:00:44;;;;;;;10.40;5.00;;;;;;;2.16;100.00;101872.09;10549129;27;20043;-79
2024/01/21 10:05:45;;;;;;;11.10;4.72;;;;;;;2.16;100.00;101876.31;10546483;28;20118;-79
2024/01/21 10:10:45;;;;;;;10.70;4.68;;;;;;;2.18;100.00;101861.88;10562665;27;20126;-81
2024/01/21 10:15:46;;;;;;;6.95;4.35;;;;;;;2.17;100.00;101873.91;10551636;28;20578;-79
2024/01/21 10:20:46;;;;;;;8.57;5.82;;;;;;;2.24;100.00;101866.75;10572080;27;20115;-80
2024/01/21 10:25:48;;;;;;;5.93;4.55;;;;;;;2.24;100.00;101859.00;10544358;28;20116;-80
2024/01/21 10:30:49;;;;;;;8.65;4.50;;;;;;;2.31;100.00;101857.16;10552659;27;20036;-81
2024/01/21 10:35:49;;;;;;;11.05;5.28;;;;;;;2.41;100.00;101852.88;10555395;27;20028;-82
2024/01/21 10:40:50;;;;;;;8.15;5.03;;;;;;;2.62;100.00;101844.59;10538527;28;20511;-81
2024/01/21 10:45:50;;;;;;;6.93;4.82;;;;;;;2.84;100.00;101832.81;10548959;28;20119;-82
2024/01/21 10:50:52;;;;;;;12.23;5.47;;;;;;;2.80;100.00;101821.25;10582378;27;20045;-82
2024/01/21 10:55:53;;;;;;;8.40;5.10;;;;;;;2.83;100.00;101834.47;10542406;27;20097;-82
2024/01/21 11:00:54;;;;;;;8.88;4.18;;;;;;;2.96;100.00;101823.59;10529084;28;20190;-82
2024/01/21 11:06:03;;;;;;;8.82;5.10;;;;;;;3.17;100.00;101797.91;10530895;27;20093;-82
2024/01/21 11:11:06;;;;;;;6.10;4.82;;;;;;;3.52;100.00;101797.66;10537510;28;20040;-81
2024/01/21 11:16:10;;;;;;;8.23;5.13;;;;;;;4.00;100.00;101785.50;10569671;27;20035;-82
2024/01/21 11:21:12;;;;;;;8.25;5.25;;;;;;;3.97;100.00;101781.84;10532288;27;20063;-82
2024/01/21 11:26:20;;;;;;;9.85;5.32;;;;;;;3.61;100.00;101769.09;10543380;28;20438;-84
2024/01/21 11:31:21;;;;;;;13.60;4.68;;;;;;;3.46;100.00;101778.97;10549001;27;20050;-82
2024/01/21 11:36:22;;;;;;;13.27;6.53;;;;;;;3.49;100.00;101763.72;10532148;27;20032;-79
2024/01/21 11:41:22;;;;;;;7.65;4.80;;;;;;;3.48;100.00;101774.84;10542835;27;20031;-81
2024/01/21 11:46:23;;;;;;;9.98;5.38;;;;;;;3.56;100.00;101775.53;10507635;27;20055;-81
2024/01/21 11:51:24;;;;;;;11.90;6.13;;;;;;;3.52;100.00;101762.31;10525935;28;20043;-82
2024/01/21 11:56:25;;;;;;;12.80;5.63;;;;;;;3.47;100.00;101797.22;10552374;28;20456;-80
2024/01/21 12:01:26;;;;;;;8.75;5.53;;;;;;;3.57;100.00;101780.88;10529057;27;20040;-79
2024/01/21 12:06:27;;;;;;;9.18;5.72;;;;;;;3.57;100.00;101774.75;10541139;28;20100;-80
2024/01/21 12:11:33;;;;;;;10.10;4.95;;;;;;;3.74;100.00;101764.25;10521812;28;20147;-81
2024/01/21 12:16:34;;;;;;;8.40;4.65;;;;;;;3.80;100.00;101762.19;10537306;28;20050;-81
2024/01/21 12:21:34;;;;;;;14.57;4.78;;;;;;;4.04;100.00;101746.13;10526433;28;20119;-79
2024/01/21 12:26:35;;;;;;;7.47;5.30;;;;;;;3.84;100.00;101796.16;10522108;28;20440;-80
2024/01/21 12:31:40;;;;;;;8.30;5.10;;;;;;;3.73;100.00;101782.25;10539386;28;20134;-82
2024/01/21 12:36:47;;;;;;;8.95;4.60;;;;;;;3.81;100.00;101770.91;10519088;28;20074;-80
2024/01/21 12:41:48;;;;;;;10.13;4.88;;;;;;;3.84;100.00;101773.75;10535770;28;20503;-79
2024/01/21 12:46:48;;;;;;;9.25;5.18;;;;;;;3.88;100.00;101743.84;10532065;28;20051;-79
2024/01/21 12:51:49;;;;;;;10.60;6.40;;;;;;;3.89;100.00;101764.72;10542378;28;20048;-77
2024/01/21 12:56:49;;;;;;;8.23;5.50;;;;;;;3.75;100.00;101765.16;10563674;28;20513;-79
2024/01/21 13:01:50;;;;;;;10.23;4.65;;;;;;;3.81;100.00;101766.63;10562985;28;20555;-79
2024/01/21 13:06:53;;;;;;;7.85;5.00;;;;;;;3.80;100.00;101769.97;10538923;28;20043;-79
2024/01/21 13:11:54;;;;;;;9.60;5.15;;;;;;;3.80;100.00;101761.31;10544244;28;20039;-79
2024/01/21 13:16:54;;;;;;;11.93;5.53;;;;;;;3.96;100.00;101737.66;10540171;28;20498;-79
2024/01/21 13:21:55;;;;;;;8.05;5.05;;;;;;;4.05;100.00;101735.88;10545050;28;20051;-80
2024/01/21 13:26:57;;;;;;;8.10;5.47;;;;;;;4.08;100.00;101756.88;10556466;28;20052;-78
2024/01/21 13:31:57;;;;;;;9.73;5.15;;;;;;;3.93;100.00;101760.72;10554363;28;20628;-78
2024/01/21 13:36:58;;;;;;;8.35;5.63;;;;;;;3.82;100.00;101757.19;10530903;28;20091;-78
2024/01/21 13:41:58;;;;;;;7.32;5.22;;;;;;;3.79;100.00;101760.38;10535098;28;20039;-79
2024/01/21 13:46:59;;;;;;;6.85;5.13;;;;;;;3.63;100.00;101752.94;10554662;27;20118;-78
2024/01/21 13:52:01;;;;;;;13.77;7.60;;;;;;;3.66;100.00;101741.94;10555312;27;20038;-79
2024/01/21 13:57:02;;;;;;;8.82;5.68;;;;;;;3.61;100.00;101732.84;10565001;28;20055;-78
2024/01/21 14:02:04;;;;;;;6.82;5.00;;;;;;;3.58;100.00;101717.97;10553235;27;20492;-78
2024/01/21 14:07:04;;;;;;;11.73;5.57;;;;;;;3.56;100.00;101724.69;10557888;27;20035;-79
2024/01/21 14:12:06;;;;;;;9.80;6.88;;;;;;;3.46;100.00;101720.34;10575190;27;20122;-79
2024/01/21 14:17:07;;;;;;;11.00;7.75;;;;;;;3.34;100.00;101707.22;10568324;27;20043;-79
2024/01/21 14:22:08;;;;;;;11.98;7.18;;;;;;;3.32;100.00;101723.38;10554890;28;20070;-80
2024/01/21 14:27:09;;;;;;;8.57;5.13;;;;;;;3.27;100.00;101712.63;10532965;27;20908;-81
2024/01/21 14:32:10;;;;;;;7.57;4.93;;;;;;;3.23;100.00;101714.00;10567345;28;20352;-80
2024/01/21 14:37:10;;;;;;;8.03;5.83;;;;;;;3.21;100.00;101709.47;10568804;27;20051;-80
2024/01/21 14:42:11;;;;;;;8.27;4.78;;;;;;;3.11;100.00;101710.28;10573157;27;20048;-81
2024/01/21 14:47:11;;;;;;;9.50;6.30;;;;;;;3.06;100.00;101720.25;10570858;27;20050;-80
2024/01/21 14:52:12;;;;;;;14.50;6.07;;;;;;;2.94;100.00;101716.53;10537089;27;20039;-81
2024/01/21 14:57:12;;;;;;;9.55;5.38;;;;;;;3.00;100.00;101696.41;10531004;27;20043;-80
2024/01/21 15:02:13;;;;;;;8.35;5.40;;;;;;;3.04;100.00;101690.75;10563517;28;20067;-80
2024/01/21 15:07:13;;;;;;;12.02;5.80;;;;;;;3.02;100.00;101707.78;10566339;28;20035;-80
2024/01/21 15:12:14;;;;;;;10.80;6.75;;;;;;;3.00;100.00;101701.56;10550782;27;20044;-80
2024/01/21 15:17:15;;;;;;;10.40;6.03;;;;;;;2.98;100.00;101692.78;10532929;28;20126;-80
2024/01/21 15:22:15;;;;;;;8.55;6.05;;;;;;;2.88;100.00;101653.91;10565922;28;20130;-79
2024/01/21 15:27:16;;;;;;;9.55;5.40;;;;;;;2.82;100.00;101620.63;10565585;28;20110;-81
2024/01/21 15:32:16;;;;;;;7.80;5.72;;;;;;;2.82;100.00;101625.78;10548588;28;20473;-81
2024/01/21 15:37:17;;;;;;;9.50;5.22;;;;;;;2.86;100.00;101608.91;10557358;28;20130;-80
2024/01/21 15:42:17;;;;;;;8.70;5.97;;;;;;;2.88;100.00;101560.81;10547935;28;20032;-80
2024/01/21 15:47:18;;;;;;;10.38;5.93;;;;;;;2.78;100.00;101609.13;10556266;27;20126;-81
2024/01/21 15:52:19;;;;;;;11.05;6.88;;;;;;;2.71;100.00;101623.91;10568880;27;20454;-82
2024/01/21 15:57:21;;;;;;;7.85;5.20;;;;;;;2.56;100.00;101603.66;10579415;27;20041;-81
2024/01/21 16:02:22;;;;;;;8.35;4.57;;;;;;;2.48;100.00;101600.38;10549464;27;20452;-81
2024/01/21 16:07:23;;;;;;;8.15;5.63;;;;;;;2.40;100.00;101615.91;10551804;28;20108;-81
2024/01/21 16:12:24;;;;;;;8.38;4.80;;;;;;;2.52;100.00;101604.13;10547946;28;20448;-82
2024/01/21 16:17:24;;;;;;;10.73;6.65;;;;;;;2.60;100.00;101610.03;10530030;27;20100;-81
2024/01/21 16:22:25;;;;;;;10.32;5.97;;;;;;;2.68;100.00;101588.38;10569116;27;20130;-81
2024/01/21 16:27:25;;;;;;;9.15;4.85;;;;;;;2.63;100.00;101594.78;10540344;28;20123;-81
2024/01/21 16:32:26;;;;;;;10.65;6.18;;;;;;;2.42;100.00;101602.38;10506713;28;20174;-81
2024/01/21 16:37:26;;;;;;;11.35;6.18;;;;;;;2.53;100.00;101585.28;10561252;27;20035;-82
2024/01/21 16:42:27;;;;;;;7.30;5.30;;;;;;;2.54;100.00;101561.25;10543958;28;20118;-81
2024/01/21 16:47:27;;;;;;;10.07;5.50;;;;;;;2.56;100.00;101546.78;10503818;28;20537;-82
2024/01/21 16:52:31;;;;;;;12.68;5.65;;;;;;;2.67;100.00;101532.25;10471251;28;20102;-82
2024/01/21 16:57:32;;;;;;;10.15;6.63;;;;;;;2.62;100.00;101534.41;10477539;28;20044;-82
2024/01/21 17:02:32;;;;;;;8.30;5.00;;;;;;;2.63;100.00;101538.81;10507067;28;20043;-81
2024/01/21 17:07:33;;;;;;;15.18;7.88;;;;;;;2.54;100.00;101530.22;10497778;28;20052;-81
2024/01/21 17:12:36;;;;;;;10.52;6.30;;;;;;;2.47;100.00;101509.78;10522443;28;20123;-81
2024/01/21 17:17:42;;;;;;;10.52;5.68;;;;;;;2.59;100.00;101495.38;10494121;28;20479;-81
2024/01/21 17:22:42;;;;;;;11.35;6.65;;;;;;;2.59;100.00;101485.03;10473808;28;20783;-80
2024/01/21 17:27:43;;;;;;;7.95;5.05;;;;;;;2.53;100.00;101471.56;10532248;28;20044;-80
2024/01/21 17:32:43;;;;;;;13.88;6.78;;;;;;;2.62;100.00;101459.47;10485328;28;20139;-79
2024/01/21 17:37:46;;;;;;;12.88;7.28;;;;;;;2.63;100.00;101474.19;10537082;28;20039;-81
2024/01/21 17:42:47;;;;;;;11.45;6.22;;;;;;;2.56;100.00;101468.38;10539311;28;20036;-80
2024/01/21 17:47:48;;;;;;;10.30;5.93;;;;;;;2.60;100.00;101435.16;10561674;28;20058;-80
2024/01/21 17:52:49;;;;;;;11.55;6.50;;;;;;;2.49;100.00;101430.72;10562619;28;20265;-80
2024/01/21 17:57:50;;;;;;;10.60;7.07;;;;;;;2.53;100.00;101412.13;10526339;28;20119;-81
2024/01/21 18:02:51;;;;;;;10.65;5.70;;;;;;;2.67;100.00;101403.03;10523412;27;20041;-80
2024/01/21 18:07:53;;;;;;;13.10;6.95;;;;;;;2.72;100.00;101406.91;10576228;27;20122;-81
2024/01/21 18:12:53;;;;;;;13.73;6.93;;;;;;;2.75;100.00;101414.03;10549838;28;20441;-81
2024/01/21 18:17:54;;;;;;;14.65;6.10;;;;;;;2.75;100.00;101420.13;10551393;28;20123;-81
2024/01/21 18:22:54;;;;;;;9.00;4.90;;;;;;;2.70;100.00;101420.47;10558243;27;20117;-81
2024/01/21 18:27:56;;;;;;;11.35;6.80;;;;;;;2.76;100.00;101419.34;10570338;28;20042;-82
2024/01/21 18:32:56;;;;;;;;;;;;;;;2.81;100.00;101403.34;10560550;27;20035;-81
2024/01/21 18:37:58;;;;;;;9.65;4.72;;;;;;;2.91;100.00;101398.19;10566661;27;19924;-81
2024/01/21 18:42:59;;;;;;;11.97;5.67;;;;;;;3.11;100.00;101373.16;10562895;27;20118;-82
2024/01/21 18:48:02;;;;;;;9.30;5.70;;;;;;;3.29;100.00;101363.44;10542929;27;20055;-79
2024/01/21 18:53:02;;;;;;;11.25;6.07;;;;;;;3.45;100.00;101360.50;10563618;27;20044;-82
2024/01/21 18:58:03;;;;;;;7.70;5.10;;;;;;;3.35;100.00;101349.34;10541790;28;20502;-78
2024/01/21 19:03:04;;;;;;;16.40;5.65;;;;;;;3.51;100.00;101340.28;10546783;28;20402;-81
2024/01/21 19:08:04;;;;;;;11.90;7.20;;;;;;;3.41;100.00;101327.38;10568690;27;20047;-80
2024/01/21 19:13:05;;;;;;;12.35;6.20;;;;;;;3.36;100.00;101361.53;10575798;27;20701;-84
2024/01/21 19:18:06;;;;;;;15.88;5.75;;;;;;;3.25;100.00;101332.91;10544529;27;20040;-80
2024/01/21 19:23:07;;;;;;;5.78;3.25;;;;;;;3.35;100.00;101322.56;10567269;27;20078;-78
2024/01/21 19:28:09;;;;;;;11.10;5.88;;;;;;;3.29;100.00;101327.22;10565368;27;20114;-79
2024/01/21 19:33:09;;;;;;;13.10;5.40;;;;;;;3.25;100.00;101338.09;10550929;27;20392;-79
2024/01/21 19:38:09;;;;;;;12.25;5.25;;;;;;;3.32;100.00;101343.00;10547230;28;20040;-79
2024/01/21 19:43:10;;;;;;;10.57;5.75;;;;;;;3.40;100.00;101320.38;10558743;27;20119;-79
2024/01/21 19:48:11;;;;;;;8.35;4.50;;;;;;;3.57;100.00;101312.34;10584793;27;20045;-78
2024/01/21 19:53:11;;;;;;;10.63;5.28;;;;;;;3.67;100.00;101304.56;10530607;27;20040;-79
2024/01/21 19:58:11;;;;;;;8.57;5.10;;;;;;;3.68;100.00;101300.25;10557326;27;20070;-78
2024/01/21 20:03:12;;;;;;;6.45;4.30;;;;;;;3.93;100.00;101271.19;10558029;27;20521;-78
2024/01/21 20:08:12;;;;;;;13.68;5.15;;;;;;;3.99;100.00;101248.38;10549831;28;20066;-78
2024/01/21 20:13:13;;;;;;;8.63;4.63;;;;;;;3.99;100.00;101221.59;10550371;27;20043;-77
2024/01/21 20:18:14;;;;;;;11.23;5.30;;;;;;;4.08;100.00;101225.81;10546690;28;20067;-78
2024/01/21 20:23:15;;;;;;;11.63;5.85;;;;;;;4.08;100.00;101183.47;10536001;28;20039;-77
2024/01/21 20:28:16;;;;;;;12.43;6.38;;;;;;;4.14;100.00;101157.13;10533047;28;20043;-77
2024/01/21 20:33:17;;;;;;;9.55;4.68;;;;;;;4.33;100.00;101157.78;10552979;28;20526;-78
2024/01/21 20:38:17;;;;;;;8.52;5.28;;;;;;;4.46;100.00;101162.22;10568725;27;20051;-77
2024/01/21 20:43:18;;;;;;;14.05;4.80;;;;;;;4.43;100.00;101145.53;10566223;27;20482;-78
2024/01/21 20:48:18;;;;;;;13.77;5.15;;;;;;;4.57;100.00;101147.47;10566762;28;20153;-78
2024/01/21 20:53:19;;;;;;;7.47;5.22;;;;;;;4.64;100.00;101151.47;10566682;28;20062;-78
2024/01/21 20:58:19;;;;;;;11.00;5.47;;;;;;;4.79;100.00;101130.97;10577757;27;20120;-78
2024/01/21 21:03:20;;;;;;;8.50;4.03;;;;;;;4.82;100.00;101124.31;10565803;28;20150;-80
2024/01/21 21:08:20;;;;;;;13.95;5.10;;;;;;;4.87;100.00;101134.16;10549273;28;20546;-78
2024/01/21 21:13:22;;;;;;;6.55;4.18;;;;;;;4.98;100.00;101128.94;10578873;28;20122;-79
2024/01/21 21:18:22;;;;;;;9.60;4.43;;;;;;;4.92;100.00;101112.94;10530065;28;20395;-78
2024/01/21 21:23:25;;;;;;;6.60;3.63;;;;;;;4.95;100.00;101112.28;10568085;28;20131;-79
2024/01/21 21:28:25;;;;;;;8.77;5.20;;;;;;;4.97;100.00;101102.91;10568091;28;20117;-79
2024/01/21 21:33:27;;;;;;;7.07;3.15;;;;;;;4.95;100.00;101097.59;10545703;28;20170;-79
2024/01/21 21:38:27;;;;;;;10.07;3.97;;;;;;;5.01;100.00;101084.19;10564560;28;20125;-79
2024/01/21 21:43:28;;;;;;;16.90;5.55;;;;;;;5.09;100.00;101059.72;10565924;27;20162;-79
2024/01/21 21:48:28;;;;;;;6.80;3.47;;;;;;;5.17;100.00;101038.59;10503254;28;20043;-79
2024/01/21 21:53:29;;;;;;;6.10;4.13;;;;;;;5.24;100.00;101013.19;10551155;27;20536;-78
2024/01/21 21:58:30;;;;;;;5.88;3.08;;;;;;;5.24;100.00;100996.75;10572582;27;20170;-79
2024/01/21 22:03:30;;;;;;;7.00;3.60;;;;;;;5.34;100.00;100996.59;10583465;27;20093;-78
2024/01/21 22:08:38;;;;;;;6.85;3.53;;;;;;;5.42;100.00;100972.09;10543634;28;20042;-79
2024/01/21 22:13:38;;;;;;;12.82;4.82;;;;;;;5.53;100.00;100979.72;10551481;27;20347;-80
2024/01/21 22:18:39;;;;;;;6.10;3.70;;;;;;;5.54;100.00;100995.38;10577796;27;20104;-78
2024/01/21 22:23:39;;;;;;;8.10;3.15;;;;;;;5.56;100.00;100979.94;10554276;27;20122;-78
2024/01/21 22:28:41;;;;;;;9.85;3.22;;;;;;;5.67;100.00;100926.13;10547652;27;20070;-78
2024/01/21 22:33:41;;;;;;;10.97;4.40;;;;;;;5.71;100.00;100930.75;10569150;27;20074;-78
2024/01/21 22:38:42;;;;;;;8.13;3.33;;;;;;;5.76;100.00;100908.56;10558725;27;20542;-78
2024/01/21 22:43:42;;;;;;;5.47;2.97;;;;;;;5.82;100.00;100892.53;10559283;27;20562;-78
2024/01/21 22:48:43;;;;;;;8.43;4.22;;;;;;;5.82;100.00;100869.16;10564761;27;20064;-78
2024/01/21 22:53:43;;;;;;;5.20;2.85;;;;;;;5.86;100.00;100884.13;10580552;27;20038;-79